createdAt,value
2023-03-01T00:01:42.005Z,13.88
2023-03-01T00:04:09.605Z,13.60
2023-03-01T00:06:37.411Z,14.93
2023-03-01T00:09:06.441Z,13.35
2023-03-01T00:11:35.209Z,12.95
2023-03-01T00:14:05.839Z,12.75
2023-03-01T00:16:35.286Z,12.75
2023-03-01T00:19:03.311Z,13.13
2023-03-01T00:21:30.938Z,14.38
2023-03-01T00:23:59.282Z,13.65
2023-03-01T00:26:28.639Z,14.02
2023-03-01T00:28:58.519Z,13.65
2023-03-01T00:31:28.303Z,13.60
2023-03-01T00:33:58.063Z,14.35
2023-03-01T00:36:27.610Z,14.88
2023-03-01T00:38:55.434Z,14.48
2023-03-01T00:41:24.286Z,13.80
2023-03-01T00:43:53.175Z,13.48
2023-03-01T00:46:24.854Z,13.43
2023-03-01T00:48:52.740Z,14.15
2023-03-01T00:51:22.314Z,13.82
2023-03-01T00:53:52.918Z,13.57
2023-03-01T00:56:21.155Z,13.13
2023-03-01T00:58:49.107Z,13.93
2023-03-01T01:01:20.232Z,13.82
2023-03-01T01:03:49.170Z,13.32
2023-03-01T01:06:18.589Z,14.93
2023-03-01T01:08:46.222Z,14.23
2023-03-01T01:11:14.744Z,16.08
2023-03-01T01:13:42.455Z,12.93
2023-03-01T01:16:10.959Z,14.95
2023-03-01T01:18:39.928Z,14.75
2023-03-01T01:21:09.213Z,15.60
2023-03-01T01:23:36.961Z,14.80
2023-03-01T01:26:09.509Z,14.20
2023-03-01T01:28:37.453Z,15.05
2023-03-01T01:31:05.420Z,13.70
2023-03-01T01:33:33.073Z,14.60
2023-03-01T01:36:01.941Z,14.35
2023-03-01T01:38:29.507Z,15.93
2023-03-01T01:40:57.312Z,13.48
2023-03-01T01:43:27.056Z,15.43
2023-03-01T01:45:58.805Z,15.00
2023-03-01T01:48:41.278Z,13.88
2023-03-01T01:51:15.502Z,14.23
2023-03-01T01:53:47.913Z,14.35
2023-03-01T01:56:18.984Z,14.23
2023-03-01T01:58:48.456Z,14.75
2023-03-01T02:01:16.208Z,15.32
2023-03-01T02:03:46.708Z,14.80
2023-03-01T02:06:21.330Z,14.48
2023-03-01T02:08:51.444Z,14.93
2023-03-01T02:11:20.322Z,14.32
2023-03-01T02:13:50.111Z,14.38
2023-03-01T02:16:18.870Z,14.82
2023-03-01T02:18:46.821Z,14.82
2023-03-01T02:21:32.123Z,15.18
2023-03-01T02:24:04.399Z,14.75
2023-03-01T02:26:40.000Z,15.35
2023-03-01T02:29:09.253Z,15.93
2023-03-01T02:31:45.970Z,15.60
2023-03-01T02:34:16.894Z,15.88
2023-03-01T02:36:48.147Z,15.52
2023-03-01T02:39:18.922Z,15.65
2023-03-01T02:41:49.909Z,15.20
2023-03-01T02:44:18.839Z,14.77
2023-03-01T02:46:48.752Z,14.50
2023-03-01T02:49:27.043Z,15.38
2023-03-01T02:52:21.780Z,15.40
2023-03-01T02:54:54.653Z,16.13
2023-03-01T02:57:23.813Z,15.48
2023-03-01T02:59:54.441Z,16.77
2023-03-01T03:02:36.938Z,16.38
2023-03-01T03:05:10.694Z,14.85
2023-03-01T03:07:40.393Z,16.17
2023-03-01T03:10:12.182Z,15.70
2023-03-01T03:12:40.025Z,15.75
2023-03-01T03:15:13.548Z,15.63
2023-03-01T03:17:44.119Z,16.52
2023-03-01T03:20:19.848Z,14.63
2023-03-01T03:22:48.697Z,16.40
2023-03-01T03:25:16.537Z,15.88
2023-03-01T03:27:45.868Z,15.02
2023-03-01T03:30:17.174Z,15.20
2023-03-01T03:32:53.022Z,15.55
2023-03-01T03:35:21.565Z,14.23
2023-03-01T03:38:04.431Z,15.40
2023-03-01T03:40:35.064Z,15.48
2023-03-01T03:43:03.068Z,16.17
2023-03-01T03:45:34.239Z,15.23
2023-03-01T03:48:02.078Z,14.20
2023-03-01T03:50:30.242Z,15.23
2023-03-01T03:52:57.825Z,16.08
2023-03-01T03:55:29.050Z,14.98
2023-03-01T03:58:02.847Z,15.68
2023-03-01T04:00:31.776Z,16.10
2023-03-01T04:02:59.317Z,15.80
2023-03-01T04:05:27.540Z,14.80
2023-03-01T04:08:02.073Z,16.42
2023-03-01T04:10:30.979Z,15.52
2023-03-01T04:12:58.735Z,15.13
2023-03-01T04:15:28.081Z,15.95
2023-03-01T04:17:57.654Z,14.85
2023-03-01T04:20:27.428Z,15.95
2023-03-01T04:22:59.679Z,15.70
2023-03-01T04:25:27.373Z,15.30
2023-03-01T04:27:54.894Z,15.50
2023-03-01T04:30:26.392Z,15.70
2023-03-01T04:32:53.900Z,16.83
2023-03-01T04:35:22.882Z,16.27
2023-03-01T04:37:51.861Z,16.58
2023-03-01T04:40:19.583Z,17.25
2023-03-01T04:42:48.104Z,16.33
2023-03-01T04:45:15.703Z,16.60
2023-03-01T04:47:45.230Z,15.85
2023-03-01T04:50:15.362Z,16.05
2023-03-01T04:52:45.085Z,16.42
2023-03-01T04:55:13.358Z,15.73
2023-03-01T04:57:41.218Z,15.15
2023-03-01T05:00:21.721Z,15.90
2023-03-01T05:02:54.219Z,15.88
2023-03-01T05:05:29.874Z,15.02
2023-03-01T05:08:01.142Z,15.20
2023-03-01T05:10:31.107Z,15.65
2023-03-01T05:12:59.363Z,14.25
2023-03-01T05:15:28.818Z,16.48
2023-03-01T05:17:59.578Z,15.15
2023-03-01T05:20:27.868Z,16.55
2023-03-01T05:22:58.015Z,15.90
2023-03-01T05:25:27.412Z,15.68
2023-03-01T05:27:54.985Z,16.63
2023-03-01T05:30:23.508Z,16.83
2023-03-01T05:32:56.489Z,16.35
2023-03-01T05:35:25.838Z,17.58
2023-03-01T05:37:53.400Z,17.25
2023-03-01T05:40:22.839Z,16.63
2023-03-01T05:42:54.691Z,16.30
2023-03-01T05:45:23.666Z,15.77
2023-03-01T05:47:51.862Z,17.85
2023-03-01T05:50:21.739Z,16.27
2023-03-01T05:52:50.485Z,15.38
2023-03-01T05:55:18.861Z,16.15
2023-03-01T05:57:46.729Z,16.05
2023-03-01T06:00:17.691Z,16.58
2023-03-01T06:02:45.265Z,16.92
2023-03-01T06:05:14.801Z,15.95
2023-03-01T06:07:43.340Z,17.05
2023-03-01T06:10:13.027Z,16.90
2023-03-01T06:12:42.056Z,16.55
2023-03-01T06:15:11.289Z,16.92
2023-03-01T06:17:44.084Z,17.95
2023-03-01T06:22:41.595Z,14.65
2023-03-01T06:25:09.959Z,18.10
2023-03-01T06:27:37.977Z,17.65
2023-03-01T06:30:06.542Z,17.92
2023-03-01T06:32:35.366Z,15.93
2023-03-01T06:35:04.684Z,16.48
2023-03-01T06:37:33.309Z,18.55
2023-03-01T06:40:00.828Z,16.80
2023-03-01T06:42:28.341Z,16.90
2023-03-01T06:44:55.847Z,17.05
2023-03-01T06:47:23.367Z,17.02
2023-03-01T06:49:50.890Z,18.05
2023-03-01T06:52:19.741Z,17.70
2023-03-01T06:54:47.265Z,17.33
2023-03-01T06:57:14.766Z,17.23
2023-03-01T06:59:42.329Z,16.20
2023-03-01T07:02:12.115Z,16.63
2023-03-01T07:04:40.115Z,16.33
2023-03-01T07:07:08.130Z,17.23
2023-03-01T07:09:37.166Z,17.20
2023-03-01T07:12:05.303Z,17.60
2023-03-01T07:14:33.018Z,17.08
2023-03-01T07:17:00.549Z,16.88
2023-03-01T07:19:28.219Z,16.27
2023-03-01T07:21:56.541Z,16.45
2023-03-01T07:24:24.532Z,15.80
2023-03-01T07:26:54.412Z,17.35
2023-03-01T07:29:22.017Z,18.15
2023-03-01T07:31:49.625Z,17.23
2023-03-01T07:34:17.209Z,17.58
2023-03-01T07:36:46.327Z,17.08
2023-03-01T07:39:14.039Z,17.27
2023-03-01T07:41:41.573Z,17.25
2023-03-01T07:44:10.608Z,17.25
2023-03-01T07:46:38.174Z,17.08
2023-03-01T07:49:06.354Z,16.80
2023-03-01T07:51:34.072Z,15.63
2023-03-01T07:54:01.847Z,15.88
2023-03-01T07:56:29.983Z,17.35
2023-03-01T07:58:57.769Z,16.65
2023-03-01T08:01:26.822Z,15.60
2023-03-01T08:03:54.500Z,17.25
2023-03-01T08:06:22.359Z,16.10
2023-03-01T08:08:49.918Z,17.58
2023-03-01T08:11:17.641Z,15.48
2023-03-01T08:13:51.834Z,16.23
2023-03-01T08:16:28.994Z,15.73
2023-03-01T08:18:57.817Z,15.75
2023-03-01T08:21:25.892Z,16.63
2023-03-01T08:23:53.697Z,16.08
2023-03-01T08:26:23.401Z,17.10
2023-03-01T08:28:52.173Z,15.93
2023-03-01T08:31:22.592Z,16.35
2023-03-01T08:33:56.421Z,15.70
2023-03-01T08:36:24.589Z,15.43
2023-03-01T08:38:52.295Z,16.15
2023-03-01T08:41:20.599Z,16.02
2023-03-01T08:43:48.646Z,15.95
2023-03-01T08:46:17.086Z,15.75
2023-03-01T08:48:44.887Z,14.32
2023-03-01T08:51:20.282Z,14.85
2023-03-01T08:53:48.428Z,15.25
2023-03-01T08:56:16.939Z,15.55
2023-03-01T08:58:46.012Z,15.43
2023-03-01T09:01:15.938Z,14.77
2023-03-01T09:03:44.575Z,14.27
2023-03-01T09:06:14.948Z,14.50
2023-03-01T09:08:44.626Z,15.18
2023-03-01T09:11:14.236Z,14.60
2023-03-01T09:13:44.269Z,14.43
2023-03-01T09:16:13.328Z,14.73
2023-03-01T09:18:41.381Z,14.95
2023-03-01T09:21:10.954Z,14.68
2023-03-01T09:23:42.277Z,13.68
2023-03-01T09:26:11.581Z,15.65
2023-03-01T09:28:39.714Z,14.27
2023-03-01T09:31:07.620Z,15.73
2023-03-01T09:33:36.303Z,15.43
2023-03-01T09:36:06.420Z,15.27
2023-03-01T09:38:34.005Z,14.68
2023-03-01T09:41:04.246Z,14.88
2023-03-01T09:43:46.710Z,14.70
2023-03-01T09:46:18.117Z,15.10
2023-03-01T09:48:50.724Z,15.63
2023-03-01T09:51:21.508Z,14.82
2023-03-01T09:53:49.080Z,14.80
2023-03-01T09:56:22.569Z,16.25
2023-03-01T09:59:27.666Z,15.18
2023-03-01T10:02:01.246Z,15.18
2023-03-01T10:04:37.646Z,15.68
2023-03-01T10:07:19.090Z,14.85
2023-03-01T10:09:48.215Z,17.95
2023-03-01T10:12:20.143Z,15.77
2023-03-01T10:14:57.706Z,15.38
2023-03-01T10:17:32.481Z,14.98
2023-03-01T10:20:15.930Z,15.02
2023-03-01T10:22:43.718Z,14.65
2023-03-01T10:25:16.444Z,14.82
2023-03-01T10:30:22.558Z,14.60
2023-03-01T10:32:52.990Z,14.95
2023-03-01T10:35:22.954Z,15.05
2023-03-01T10:38:04.065Z,15.07
2023-03-01T10:40:31.872Z,13.23
2023-03-01T10:43:03.245Z,13.75
2023-03-01T10:45:36.700Z,13.63
2023-03-01T10:48:07.213Z,15.00
2023-03-01T10:50:34.899Z,13.73
2023-03-01T10:53:04.708Z,13.73
2023-03-01T10:55:37.120Z,12.77
2023-03-01T10:58:21.052Z,13.35
2023-03-01T11:00:52.148Z,12.40
2023-03-01T11:03:24.108Z,12.73
2023-03-01T11:05:58.387Z,11.80
2023-03-01T11:08:35.240Z,12.18
2023-03-01T11:11:08.884Z,11.18
2023-03-01T11:13:39.604Z,12.85
2023-03-01T11:16:12.064Z,12.52
2023-03-01T11:21:17.442Z,11.30
2023-03-01T11:23:47.848Z,11.73
2023-03-01T11:26:17.572Z,11.98
2023-03-01T11:28:52.535Z,11.85
2023-03-01T11:31:21.451Z,11.82
2023-03-01T11:33:55.542Z,12.38
2023-03-01T11:36:32.983Z,11.93
2023-03-01T11:39:07.502Z,10.55
2023-03-01T11:41:38.479Z,13.25
2023-03-01T11:44:16.570Z,12.15
2023-03-01T11:47:11.027Z,13.30
2023-03-01T11:49:59.456Z,12.43
2023-03-01T11:52:39.742Z,10.90
2023-03-01T11:55:22.632Z,16.60
2023-03-01T11:58:07.522Z,14.43
2023-03-01T12:00:53.539Z,11.88
2023-03-01T12:03:34.350Z,10.57
2023-03-01T12:06:14.797Z,13.07
2023-03-01T12:08:49.338Z,13.55
2023-03-01T12:11:29.954Z,13.00
2023-03-01T12:14:19.381Z,12.82
2023-03-01T12:17:04.412Z,13.07
2023-03-01T12:19:58.678Z,14.02
2023-03-01T12:22:32.799Z,15.25
2023-03-01T12:25:18.125Z,14.35
2023-03-01T12:28:10.905Z,15.98
2023-03-01T12:30:53.421Z,15.48
2023-03-01T12:33:31.889Z,15.40
2023-03-01T12:36:23.102Z,16.92
2023-03-01T12:38:57.536Z,14.43
2023-03-01T12:41:40.609Z,14.15
2023-03-01T12:44:17.629Z,15.50
2023-03-01T12:46:59.211Z,16.75
2023-03-01T12:49:33.944Z,13.95
2023-03-01T12:52:10.452Z,13.77
2023-03-01T12:54:38.641Z,14.55
2023-03-01T12:57:16.163Z,14.35
2023-03-01T12:59:51.717Z,14.57
2023-03-01T13:02:26.894Z,13.98
2023-03-01T13:05:09.166Z,14.55
2023-03-01T13:07:42.757Z,14.02
2023-03-01T13:10:25.555Z,13.68
2023-03-01T13:13:02.492Z,15.43
2023-03-01T13:15:32.805Z,14.60
2023-03-01T13:18:02.253Z,14.68
2023-03-01T13:20:36.891Z,13.73
2023-03-01T13:23:25.789Z,14.43
2023-03-01T13:26:06.399Z,12.50
2023-03-01T13:28:52.078Z,12.65
2023-03-01T13:31:53.413Z,13.18
2023-03-01T13:34:59.499Z,12.85
2023-03-01T13:37:36.966Z,13.00
2023-03-01T13:40:28.418Z,13.43
2023-03-01T13:43:05.276Z,13.73
2023-03-01T13:45:39.684Z,12.63
2023-03-01T13:48:13.038Z,13.90
2023-03-01T13:50:48.830Z,12.82
2023-03-01T13:53:20.742Z,12.95
2023-03-01T13:55:50.638Z,11.77
2023-03-01T13:58:23.342Z,13.10
2023-03-01T14:03:25.679Z,13.18
2023-03-01T14:06:13.986Z,12.80
2023-03-01T14:08:45.790Z,13.38
2023-03-01T14:11:52.446Z,12.38
2023-03-01T14:14:44.039Z,12.45
2023-03-01T14:17:40.146Z,13.18
2023-03-01T14:20:16.550Z,13.95
2023-03-01T14:22:45.791Z,12.18
2023-03-01T14:25:25.309Z,12.45
2023-03-01T14:28:06.093Z,12.77
2023-03-01T14:30:39.282Z,12.60
2023-03-01T14:33:08.809Z,11.93
2023-03-01T14:35:38.042Z,13.32
2023-03-01T14:38:05.715Z,13.23
2023-03-01T14:40:37.020Z,12.32
2023-03-01T14:43:11.675Z,12.57
2023-03-01T14:45:39.403Z,13.43
2023-03-01T14:48:08.911Z,13.48
2023-03-01T14:50:42.040Z,13.35
2023-03-01T14:53:19.230Z,13.55
2023-03-01T14:55:50.587Z,12.57
2023-03-01T14:58:22.096Z,13.07
2023-03-01T15:00:52.905Z,13.18
2023-03-01T15:03:27.772Z,13.45
2023-03-01T15:05:55.584Z,12.50
2023-03-01T15:08:26.457Z,13.02
2023-03-01T15:11:03.893Z,13.40
2023-03-01T15:13:34.247Z,12.43
2023-03-01T15:16:08.692Z,12.90
2023-03-01T15:18:37.324Z,13.20
2023-03-01T15:21:09.726Z,12.93
2023-03-01T15:23:39.135Z,13.80
2023-03-01T15:26:08.728Z,12.45
2023-03-01T15:28:42.101Z,12.77
2023-03-01T15:31:21.336Z,12.02
2023-03-01T15:33:49.543Z,12.15
2023-03-01T15:36:36.046Z,12.07
2023-03-01T15:39:04.635Z,12.27
2023-03-01T15:41:39.426Z,12.35
2023-03-01T15:44:18.763Z,12.55
2023-03-01T15:46:49.485Z,12.93
2023-03-01T15:49:33.679Z,12.45
2023-03-01T15:52:01.176Z,12.13
2023-03-01T15:54:30.113Z,12.00
2023-03-01T15:56:59.425Z,11.95
2023-03-01T15:59:26.965Z,12.05
2023-03-01T16:01:54.468Z,12.52
2023-03-01T16:04:26.708Z,11.35
2023-03-01T16:06:56.421Z,11.63
2023-03-01T16:09:25.117Z,11.95
2023-03-01T16:11:54.252Z,13.00
2023-03-01T16:14:23.237Z,11.50
2023-03-01T16:16:50.764Z,12.93
2023-03-01T16:19:18.691Z,12.05
2023-03-01T16:21:47.740Z,11.68
2023-03-01T16:24:15.943Z,11.80
2023-03-01T16:26:43.990Z,12.98
2023-03-01T16:29:11.712Z,12.98
2023-03-01T16:31:40.704Z,12.77
2023-03-01T16:34:08.468Z,12.57
2023-03-01T16:36:35.962Z,13.10
2023-03-01T16:39:04.237Z,14.30
2023-03-01T16:41:32.281Z,14.13
2023-03-01T16:43:59.920Z,13.43
2023-03-01T16:46:29.669Z,12.65
2023-03-01T16:48:58.906Z,13.45
2023-03-01T16:51:26.572Z,13.07
2023-03-01T16:53:54.459Z,11.85
2023-03-01T16:56:22.060Z,13.30
2023-03-01T16:58:49.896Z,13.00
2023-03-01T17:01:18.890Z,12.60
2023-03-01T17:03:48.312Z,12.55
2023-03-01T17:06:21.184Z,13.13
2023-03-01T17:08:48.717Z,13.07
2023-03-01T17:11:18.767Z,13.77
2023-03-01T17:13:46.940Z,15.77
2023-03-01T17:16:18.214Z,14.43
2023-03-01T17:18:45.960Z,13.25
2023-03-01T17:21:14.211Z,13.57
2023-03-01T17:23:46.265Z,12.82
2023-03-01T17:26:14.250Z,13.35
2023-03-01T17:28:43.653Z,13.13
2023-03-01T17:31:11.225Z,12.95
2023-03-01T17:33:38.741Z,13.68
2023-03-01T17:36:07.134Z,13.68
2023-03-01T17:38:36.487Z,13.43
2023-03-01T17:41:06.129Z,12.70
2023-03-01T17:43:35.172Z,13.93
2023-03-01T17:46:02.834Z,13.82
2023-03-01T17:48:30.561Z,12.95
2023-03-01T17:50:58.321Z,14.32
2023-03-01T17:53:25.948Z,13.38
2023-03-01T17:56:01.304Z,14.40
2023-03-01T17:58:30.323Z,15.30
2023-03-01T18:00:57.931Z,13.50
2023-03-01T18:03:25.520Z,15.52
2023-03-01T18:05:53.109Z,14.35
2023-03-01T18:08:20.791Z,13.93
2023-03-01T18:10:48.336Z,14.95
2023-03-01T18:13:15.819Z,15.30
2023-03-01T18:15:44.805Z,15.35
2023-03-01T18:18:12.286Z,14.95
2023-03-01T18:20:39.879Z,15.50
2023-03-01T18:23:07.550Z,14.80
2023-03-01T18:25:35.137Z,15.70
2023-03-01T18:28:02.729Z,15.98
2023-03-01T18:30:30.275Z,16.58
2023-03-01T18:32:59.196Z,15.40
2023-03-01T18:35:26.731Z,16.95
2023-03-01T18:37:54.315Z,15.60
2023-03-01T18:40:21.868Z,16.17
2023-03-01T18:42:49.425Z,16.15
2023-03-01T18:45:31.752Z,15.98
2023-03-01T18:48:04.950Z,15.85
2023-03-01T18:50:33.119Z,15.82
2023-03-01T18:53:00.689Z,16.38
2023-03-01T18:55:28.233Z,17.42
2023-03-01T18:57:55.864Z,16.77
2023-03-01T19:00:24.470Z,15.65
2023-03-01T19:02:52.095Z,16.52
2023-03-01T19:05:21.144Z,16.10
2023-03-01T19:07:49.141Z,17.58
2023-03-01T19:10:17.250Z,15.48
2023-03-01T19:12:44.904Z,15.80
2023-03-01T19:15:13.637Z,16.30
2023-03-01T19:17:41.501Z,16.98
2023-03-01T19:20:10.734Z,16.20
2023-03-01T19:22:40.203Z,16.08
2023-03-01T19:25:08.811Z,16.60
2023-03-01T19:27:36.548Z,17.52
2023-03-01T19:30:04.711Z,16.25
2023-03-01T19:32:34.690Z,16.50
2023-03-01T19:35:02.327Z,16.50
2023-03-01T19:37:29.971Z,17.10
2023-03-01T19:39:59.269Z,17.10
2023-03-01T19:42:28.356Z,16.33
2023-03-01T19:44:56.188Z,18.15
2023-03-01T19:47:23.869Z,16.75
2023-03-01T19:49:51.702Z,16.85
2023-03-01T19:52:19.436Z,16.73
2023-03-01T19:54:47.192Z,17.05
2023-03-01T19:57:19.704Z,16.58
2023-03-01T19:59:50.831Z,17.08
2023-03-01T20:02:18.554Z,16.20
2023-03-01T20:04:46.529Z,16.90
2023-03-01T20:07:14.671Z,16.27
2023-03-01T20:09:42.674Z,17.35
2023-03-01T20:12:10.591Z,19.05
2023-03-01T20:14:40.708Z,17.92
2023-03-01T20:17:08.612Z,16.45
2023-03-01T20:19:37.253Z,17.27
2023-03-01T20:22:07.704Z,17.10
2023-03-01T20:24:35.320Z,16.80
2023-03-01T20:27:03.187Z,18.40
2023-03-01T20:29:30.788Z,17.38
2023-03-01T20:32:00.053Z,16.50
2023-03-01T20:34:27.749Z,18.27
2023-03-01T20:36:55.446Z,17.48
2023-03-01T20:39:23.121Z,18.48
2023-03-01T20:41:50.689Z,17.05
2023-03-01T20:44:18.288Z,17.85
2023-03-01T20:46:46.203Z,18.42
2023-03-01T20:49:15.489Z,17.55
2023-03-01T20:51:44.273Z,16.25
2023-03-01T20:54:11.870Z,17.45
2023-03-01T20:56:39.527Z,16.77
2023-03-01T20:59:09.696Z,17.67
2023-03-01T21:01:39.440Z,17.63
2023-03-01T21:04:07.561Z,16.58
2023-03-01T21:06:37.842Z,16.73
2023-03-01T21:09:05.977Z,17.80
2023-03-01T21:11:33.619Z,16.90
2023-03-01T21:14:01.598Z,17.92
2023-03-01T21:16:29.284Z,17.38
2023-03-01T21:18:56.968Z,17.15
2023-03-01T21:21:25.064Z,18.00
2023-03-01T21:23:54.706Z,17.58
2023-03-01T21:26:23.700Z,18.23
2023-03-01T21:28:54.290Z,17.67
2023-03-01T21:31:23.617Z,18.42
2023-03-01T21:33:53.087Z,17.98
2023-03-01T21:36:22.014Z,18.70
2023-03-01T21:38:50.952Z,17.58
2023-03-01T21:41:22.268Z,18.20
2023-03-01T21:43:51.842Z,17.00
2023-03-01T21:46:21.364Z,17.95
2023-03-01T21:48:50.133Z,18.33
2023-03-01T21:51:19.215Z,17.05
2023-03-01T21:53:47.806Z,17.40
2023-03-01T21:56:16.993Z,16.90
2023-03-01T21:58:46.106Z,19.38
2023-03-01T22:04:25.006Z,19.65
2023-03-01T22:06:54.504Z,18.35
2023-03-01T22:09:24.174Z,19.83
2023-03-01T22:11:53.986Z,18.98
2023-03-01T22:14:23.344Z,18.42
2023-03-01T22:16:51.860Z,17.85
2023-03-01T22:19:20.445Z,18.80
2023-03-01T22:21:50.495Z,18.70
2023-03-01T22:24:19.897Z,18.70
2023-03-01T22:26:49.512Z,18.58
2023-03-01T22:29:19.424Z,18.67
2023-03-01T22:31:48.689Z,18.58
2023-03-01T22:34:17.240Z,18.88
2023-03-01T22:36:45.509Z,18.85
2023-03-01T22:39:15.809Z,18.55
2023-03-01T22:41:45.857Z,19.65
2023-03-01T22:44:14.593Z,19.00
2023-03-01T22:46:42.504Z,17.90
2023-03-01T22:49:11.549Z,19.23
2023-03-01T22:51:41.324Z,18.65
2023-03-01T22:54:09.900Z,18.35
2023-03-01T22:56:38.596Z,19.08
2023-03-01T22:59:09.653Z,18.17
2023-03-01T23:01:38.236Z,19.45
2023-03-01T23:04:05.960Z,19.23
2023-03-01T23:06:50.422Z,19.42
2023-03-01T23:09:19.759Z,18.52
2023-03-01T23:11:47.308Z,18.55
2023-03-01T23:14:16.167Z,18.98
2023-03-01T23:16:44.012Z,18.50
2023-03-01T23:19:11.762Z,19.92
2023-03-01T23:21:44.267Z,19.67
2023-03-01T23:24:11.851Z,17.73
2023-03-01T23:26:40.401Z,18.70
2023-03-01T23:29:09.053Z,17.45
2023-03-01T23:31:36.992Z,18.75
2023-03-01T23:34:05.027Z,18.73
2023-03-01T23:36:35.068Z,17.88
2023-03-01T23:39:07.615Z,18.45
2023-03-01T23:41:35.935Z,18.35
2023-03-01T23:44:05.263Z,19.77
2023-03-01T23:46:35.555Z,17.77
2023-03-01T23:49:04.637Z,17.85
2023-03-01T23:51:32.555Z,18.73
2023-03-01T23:54:05.212Z,17.48
2023-03-01T23:56:36.796Z,19.13
2023-03-01T23:59:09.119Z,18.17
